Time;durP1;ratioP1;P1;durP2;ratioP2;P2;SDS_P1;SDS_P2;PMS_P1;PMS_P2;Temp;Humidity;BMP_temperature;BMP_pressure;BME280_temperature;BME280_humidity;BME280_pressure;Samples;Min_cycle;Max_cycle;Signal;HPM_P1;HPM_P2
2023/03/14 00:02:06;;;;;;;47.90;25.15;;;8.10;84.50;;;;;;4955263;28;20035;-74
2023/03/14 00:04:32;;;;;;;53.75;23.88;;;8.10;84.90;;;;;;4953862;29;20110;-74
2023/03/14 00:06:57;;;;;;;35.45;19.75;;;8.00;84.60;;;;;;4940356;29;20034;-75
2023/03/14 00:09:23;;;;;;;31.35;14.85;;;8.00;84.90;;;;;;4937797;29;20049;-74
2023/03/14 00:11:49;;;;;;;30.80;12.90;;;8.00;84.30;;;;;;4935619;29;20035;-75
2023/03/14 00:14:16;;;;;;;29.95;13.30;;;8.00;84.40;;;;;;4939215;29;20020;-74
2023/03/14 00:16:45;;;;;;;26.13;11.85;;;8.00;84.10;;;;;;4951030;29;20031;-74
2023/03/14 00:19:11;;;;;;;25.17;12.60;;;8.00;83.60;;;;;;4955317;29;20509;-74
2023/03/14 00:21:37;;;;;;;19.88;10.40;;;8.10;83.00;;;;;;4954919;28;20107;-74
2023/03/14 00:24:03;;;;;;;20.83;10.75;;;8.20;82.90;;;;;;4955160;29;20026;-74
2023/03/14 00:26:28;;;;;;;23.10;10.80;;;8.20;82.60;;;;;;4955101;29;20074;-75
2023/03/14 00:28:54;;;;;;;28.05;11.23;;;8.20;83.20;;;;;;4954961;29;20035;-77
2023/03/14 00:31:21;;;;;;;22.52;10.98;;;8.10;82.80;;;;;;4954330;28;20102;-74
2023/03/14 00:33:47;;;;;;;21.38;10.88;;;8.20;82.60;;;;;;4953654;29;20055;-74
2023/03/14 00:36:16;;;;;;;18.85;9.15;;;8.20;82.40;;;;;;4954969;29;20039;-74
2023/03/14 00:38:43;;;;;;;20.85;10.30;;;8.10;82.50;;;;;;4954931;28;20027;-74
2023/03/14 00:41:12;;;;;;;26.13;10.32;;;8.20;82.40;;;;;;4954959;28;20069;-75
2023/03/14 00:43:38;;;;;;;21.17;9.77;;;8.20;82.50;;;;;;4954889;28;20031;-74
2023/03/14 00:46:05;;;;;;;24.92;11.23;;;8.10;82.70;;;;;;4952878;28;20453;-74
2023/03/14 00:48:31;;;;;;;28.02;10.27;;;8.10;82.80;;;;;;4954623;29;20027;-74
2023/03/14 00:50:57;;;;;;;22.45;9.68;;;8.10;82.80;;;;;;4953597;29;20370;-76
2023/03/14 00:53:23;;;;;;;22.60;9.52;;;8.10;82.80;;;;;;4941064;29;20039;-74
2023/03/14 00:55:50;;;;;;;19.77;10.35;;;8.10;83.10;;;;;;4953007;28;20405;-74
2023/03/14 00:58:17;;;;;;;22.58;11.57;;;8.10;83.10;;;;;;4954714;29;20382;-74
2023/03/14 01:00:44;;;;;;;23.35;12.60;;;8.00;83.20;;;;;;4954409;28;20472;-74
2023/03/14 01:03:11;;;;;;;29.70;11.95;;;8.00;83.40;;;;;;4954858;28;20035;-75
2023/03/14 01:05:37;;;;;;;23.10;12.50;;;8.00;83.00;;;;;;4954655;28;20027;-74
2023/03/14 01:08:04;;;;;;;22.38;11.32;;;8.00;83.20;;;;;;4937155;29;20489;-74
2023/03/14 01:10:30;;;;;;;20.15;9.77;;;8.00;83.20;;;;;;4937113;29;20051;-75
2023/03/14 01:12:57;;;;;;;18.48;9.55;;;8.00;83.10;;;;;;4934960;29;20466;-76
2023/03/14 01:15:23;;;;;;;18.73;9.65;;;8.00;82.90;;;;;;4934749;29;20036;-76
2023/03/14 01:17:49;;;;;;;20.00;9.93;;;8.00;83.30;;;;;;4935025;29;20026;-76
2023/03/14 01:20:17;;;;;;;24.05;9.90;;;8.00;83.30;;;;;;4934912;29;20034;-76
2023/03/14 01:22:43;;;;;;;21.48;10.55;;;7.90;83.40;;;;;;4934365;29;20031;-76
2023/03/14 01:25:16;;;;;;;21.33;9.73;;;7.90;83.60;;;;;;4932877;29;20028;-77
2023/03/14 01:27:42;;;;;;;17.55;9.63;;;7.80;84.30;;;;;;4933358;28;20020;-76
2023/03/14 01:30:09;;;;;;;17.58;9.10;;;7.80;83.80;;;;;;4917571;29;20083;-75
2023/03/14 01:32:35;;;;;;;22.08;9.20;;;7.80;83.70;;;;;;4937724;29;20472;-73
2023/03/14 01:35:01;;;;;;;17.85;9.57;;;7.80;84.20;;;;;;4934303;29;20466;-76
2023/03/14 01:37:27;;;;;;;17.40;8.70;;;7.80;85.00;;;;;;4934693;29;20027;-76
2023/03/14 01:39:53;;;;;;;17.67;8.90;;;7.80;84.20;;;;;;4934632;29;20469;-75
2023/03/14 01:42:19;;;;;;;19.65;10.23;;;7.80;84.50;;;;;;4904203;29;20024;-74
2023/03/14 01:45:00;;;;;;;24.55;10.45;;;7.70;84.80;;;;;;4917775;29;20474;-75
2023/03/14 01:47:26;;;;;;;18.92;9.07;;;7.60;86.20;;;;;;4930312;29;20034;-75
2023/03/14 01:50:10;;;;;;;19.13;9.68;;;7.40;88.60;;;;;;4934251;29;20389;-76
2023/03/14 01:52:42;;;;;;;19.77;8.75;;;7.40;88.60;;;;;;4933092;28;20040;-76
2023/03/14 01:55:21;;;;;;;17.25;9.57;;;7.40;88.50;;;;;;4934533;29;20024;-75
2023/03/14 01:58:04;;;;;;;17.98;9.25;;;7.40;89.10;;;;;;4933381;29;20059;-77
2023/03/14 02:00:30;;;;;;;19.13;9.43;;;7.40;89.10;;;;;;4933254;29;20072;-78
2023/03/14 02:03:01;;;;;;;24.88;10.10;;;7.40;88.60;;;;;;4937823;29;20059;-77
2023/03/14 02:05:32;;;;;;;18.27;9.35;;;7.40;87.70;;;;;;4936700;29;20111;-75
2023/03/14 02:08:09;;;;;;;17.52;9.13;;;7.50;86.90;;;;;;4938421;28;20027;-73
2023/03/14 02:10:45;;;;;;;18.08;8.82;;;7.50;86.80;;;;;;4936789;28;20130;-74
2023/03/14 02:13:12;;;;;;;19.67;10.32;;;7.50;87.10;;;;;;4920869;29;20382;-75
2023/03/14 02:15:57;;;;;;;20.92;9.40;;;7.50;87.50;;;;;;4936867;29;20055;-74
2023/03/14 02:18:53;;;;;;;17.10;8.55;;;7.50;87.80;;;;;;4912627;29;20040;-77
2023/03/14 02:21:30;;;;;;;20.13;9.27;;;7.50;88.20;;;;;;4882604;29;20051;-76
2023/03/14 02:24:08;;;;;;;18.27;8.32;;;7.50;87.80;;;;;;4897542;29;20067;-77
2023/03/14 02:26:47;;;;;;;19.17;8.90;;;7.50;88.20;;;;;;4881833;29;20024;-77
2023/03/14 02:29:13;;;;;;;18.77;9.93;;;7.50;88.20;;;;;;4881852;29;20045;-76
2023/03/14 02:31:39;;;;;;;19.45;9.48;;;7.50;88.70;;;;;;4897446;29;20041;-77
2023/03/14 02:34:05;;;;;;;17.13;9.00;;;7.60;89.00;;;;;;4897436;29;20032;-75
2023/03/14 02:36:32;;;;;;;19.50;9.40;;;7.60;88.80;;;;;;4897365;29;20036;-75
2023/03/14 02:39:20;;;;;;;17.30;8.57;;;7.60;88.80;;;;;;4881667;29;20037;-75
2023/03/14 02:41:49;;;;;;;26.17;10.63;;;7.70;88.90;;;;;;4882324;29;20127;-75
2023/03/14 02:44:16;;;;;;;23.08;9.82;;;7.70;89.10;;;;;;4897312;29;20089;-76
2023/03/14 02:46:42;;;;;;;15.77;8.95;;;7.70;89.00;;;;;;4897289;29;20033;-74
2023/03/14 02:49:11;;;;;;;16.30;8.30;;;7.70;89.40;;;;;;4881920;29;20204;-74
2023/03/14 02:51:39;;;;;;;17.75;8.52;;;7.70;89.20;;;;;;4896991;29;20064;-74
2023/03/14 02:54:06;;;;;;;15.75;8.05;;;7.70;88.70;;;;;;4881803;29;20039;-74
2023/03/14 02:56:32;;;;;;;14.48;7.55;;;7.70;88.50;;;;;;4935908;29;20027;-74
2023/03/14 02:59:03;;;;;;;18.40;8.23;;;7.70;88.60;;;;;;4921943;28;20048;-76
2023/03/14 03:01:37;;;;;;;18.15;8.60;;;7.70;88.90;;;;;;4955473;28;20031;-74
2023/03/14 03:04:03;;;;;;;16.80;7.95;;;7.70;88.80;;;;;;4966577;28;20037;-74
2023/03/14 03:06:29;;;;;;;23.63;8.55;;;7.70;89.50;;;;;;4958803;28;20023;-75
2023/03/14 03:08:55;;;;;;;17.27;7.88;;;7.70;90.00;;;;;;4940975;29;20043;-75
2023/03/14 03:11:21;;;;;;;14.98;8.48;;;7.70;89.70;;;;;;4939326;29;20030;-76
2023/03/14 03:13:47;;;;;;;19.90;9.27;;;7.70;89.70;;;;;;4953957;28;20027;-75
2023/03/14 03:16:14;;;;;;;16.48;8.10;;;7.60;89.70;;;;;;4940216;28;20038;-76
2023/03/14 03:18:40;;;;;;;14.85;7.90;;;7.60;89.80;;;;;;4954861;28;20027;-76
2023/03/14 03:21:08;;;;;;;15.77;7.53;;;7.60;89.80;;;;;;4955829;28;20397;-75
2023/03/14 03:23:34;;;;;;;18.15;8.88;;;7.60;89.90;;;;;;4962639;28;20034;-76
2023/03/14 03:26:02;;;;;;;25.40;12.18;;;7.50;89.80;;;;;;4942630;29;20046;-76
2023/03/14 03:28:28;;;;;;;23.08;13.27;;;7.50;90.00;;;;;;4938621;29;20047;-76
2023/03/14 03:30:55;;;;;;;20.75;9.98;;;7.50;90.10;;;;;;4938341;28;20042;-75
2023/03/14 03:33:23;;;;;;;19.67;10.25;;;7.50;89.90;;;;;;4939151;29;20079;-76
2023/03/14 03:35:50;;;;;;;20.73;9.73;;;7.50;90.10;;;;;;4955955;28;20019;-75
2023/03/14 03:38:22;;;;;;;18.67;9.50;;;7.40;90.40;;;;;;4955691;28;20034;-75
2023/03/14 03:40:50;;;;;;;20.05;11.40;;;7.40;90.60;;;;;;4937119;29;20342;-75
2023/03/14 03:43:18;;;;;;;19.33;10.57;;;7.40;90.40;;;;;;4931992;29;20019;-75
2023/03/14 03:45:46;;;;;;;27.63;15.30;;;7.40;90.50;;;;;;4954334;28;20031;-75
2023/03/14 03:48:11;;;;;;;27.15;14.50;;;7.40;90.50;;;;;;4954367;28;20049;-76
2023/03/14 03:50:43;;;;;;;27.13;14.13;;;7.40;90.50;;;;;;4938064;29;20031;-75
2023/03/14 03:53:09;;;;;;;19.23;11.38;;;7.30;90.90;;;;;;4927100;29;20024;-75
2023/03/14 03:55:34;;;;;;;20.88;11.52;;;7.10;91.50;;;;;;4933931;29;20047;-75
2023/03/14 03:58:00;;;;;;;26.70;14.40;;;7.10;91.70;;;;;;4947773;28;20102;-74
2023/03/14 04:00:26;;;;;;;23.67;14.13;;;7.10;91.50;;;;;;4938005;29;20476;-76
2023/03/14 04:02:52;;;;;;;29.42;17.17;;;7.10;91.60;;;;;;4953817;28;20111;-75
2023/03/14 04:05:18;;;;;;;23.98;10.55;;;7.10;91.70;;;;;;4938142;29;20024;-75
2023/03/14 04:07:50;;;;;;;23.00;12.17;;;7.00;91.60;;;;;;4954170;28;20035;-77
2023/03/14 04:10:22;;;;;;;29.70;16.15;;;6.80;91.90;;;;;;4954160;28;20035;-73
2023/03/14 04:13:17;;;;;;;27.17;14.45;;;6.80;92.10;;;;;;4894664;29;20392;-75
2023/03/14 04:15:48;;;;;;;27.15;17.08;;;6.80;92.20;;;;;;4878287;29;20055;-75
2023/03/14 04:18:20;;;;;;;23.67;12.60;;;6.50;92.50;;;;;;4889794;29;20056;-75
2023/03/14 04:20:51;;;;;;;27.45;14.27;;;6.30;93.10;;;;;;4871580;29;20485;-75
2023/03/14 04:23:19;;;;;;;27.85;12.98;;;6.20;93.90;;;;;;4879512;29;20032;-76
2023/03/14 04:25:47;;;;;;;26.83;14.05;;;6.00;94.60;;;;;;4884591;29;20036;-74
2023/03/14 04:28:13;;;;;;;22.50;13.05;;;5.90;95.40;;;;;;4880294;29;20082;-75
2023/03/14 04:30:38;;;;;;;25.95;13.20;;;5.80;96.20;;;;;;4874020;29;20045;-75
2023/03/14 04:33:09;;;;;;;28.75;14.98;;;5.70;97.40;;;;;;4879685;29;20034;-76
2023/03/14 04:35:41;;;;;;;28.65;15.35;;;5.80;98.70;;;;;;4875647;29;20514;-76
2023/03/14 04:38:10;;;;;;;22.77;12.18;;;5.80;98.90;;;;;;4879665;29;20029;-75
2023/03/14 04:40:40;;;;;;;21.45;12.30;;;5.90;98.60;;;;;;4879796;29;20044;-76
2023/03/14 04:43:09;;;;;;;21.83;11.35;;;5.90;97.30;;;;;;4880429;29;20531;-76
2023/03/14 04:45:36;;;;;;;19.08;9.52;;;6.00;97.10;;;;;;4872218;29;20044;-75
2023/03/14 04:48:05;;;;;;;18.80;8.85;;;5.90;96.80;;;;;;4861489;29;20029;-77
2023/03/14 04:50:31;;;;;;;16.55;8.88;;;6.00;97.80;;;;;;4929032;29;20062;-76
2023/03/14 04:52:57;;;;;;;22.30;10.13;;;6.10;97.80;;;;;;4954989;29;20027;-77
2023/03/14 04:55:23;;;;;;;18.42;10.07;;;6.20;97.90;;;;;;4955000;29;20059;-76
2023/03/14 04:57:49;;;;;;;27.40;14.55;;;6.20;98.00;;;;;;4937071;29;20031;-77
2023/03/14 05:00:17;;;;;;;24.15;13.00;;;6.30;98.00;;;;;;4954963;29;20058;-78
2023/03/14 05:02:53;;;;;;;30.80;15.90;;;6.20;98.80;;;;;;4953226;28;20039;-76
2023/03/14 05:05:51;;;;;;;24.90;12.25;;;6.20;99.00;;;;;;4912107;29;20379;-77
2023/03/14 05:08:36;;;;;;;20.17;10.45;;;6.30;99.30;;;;;;4901223;29;20215;-76
2023/03/14 05:11:27;;;;;;;20.90;10.57;;;6.30;98.80;;;;;;4892731;29;20413;-76
2023/03/14 05:14:22;;;;;;;16.35;8.18;;;6.30;98.30;;;;;;4895243;29;20045;-75
2023/03/14 05:17:00;;;;;;;19.77;8.55;;;6.40;99.20;;;;;;4894843;29;20161;-76
2023/03/14 05:19:52;;;;;;;19.52;7.70;;;6.70;98.60;;;;;;4873956;29;20072;-76
2023/03/14 05:22:42;;;;;;;14.55;7.80;;;6.80;98.10;;;;;;4880007;29;20107;-76
2023/03/14 05:25:42;;;;;;;22.80;11.25;;;6.80;97.50;;;;;;4848495;29;20092;-75
2023/03/14 05:28:26;;;;;;;19.95;9.38;;;6.90;97.70;;;;;;4828207;29;20102;-77
2023/03/14 05:31:07;;;;;;;18.15;9.68;;;6.80;97.50;;;;;;4825077;29;20110;-76
2023/03/14 05:33:59;;;;;;;18.48;9.40;;;6.80;98.40;;;;;;4839654;29;20668;-77
2023/03/14 05:36:50;;;;;;;17.60;9.27;;;6.70;98.10;;;;;;4838661;29;20067;-77
2023/03/14 05:39:26;;;;;;;21.08;10.40;;;6.60;99.30;;;;;;4835504;29;20030;-77
2023/03/14 05:42:08;;;;;;;19.47;9.03;;;6.60;99.90;;;;;;4870342;29;20140;-78
2023/03/14 05:44:44;;;;;;;20.23;10.38;;;6.70;99.90;;;;;;4865169;29;20909;-78
2023/03/14 05:47:17;;;;;;;;;;;6.70;99.90;;;;;;4863562;29;20033;-79
2023/03/14 05:49:52;;;;;;;24.63;10.93;;;6.80;99.90;;;;;;4875332;29;20293;-78
2023/03/14 05:52:43;;;;;;;26.10;10.82;;;6.90;99.70;;;;;;4904184;29;20088;-78
2023/03/14 05:55:30;;;;;;;26.33;10.07;;;7.00;98.90;;;;;;4885085;29;20044;-77
2023/03/14 05:58:10;;;;;;;25.33;11.77;;;7.10;99.10;;;;;;4884054;29;20032;-78
2023/03/14 06:00:52;;;;;;;21.88;11.52;;;7.20;98.10;;;;;;4897873;29;20055;-77
2023/03/14 06:03:38;;;;;;;29.60;13.93;;;7.30;97.60;;;;;;4958270;28;20090;-79
2023/03/14 06:06:05;;;;;;;22.65;12.07;;;7.40;97.70;;;;;;4941381;29;20079;-78
2023/03/14 06:08:31;;;;;;;27.13;13.20;;;7.50;96.60;;;;;;4958001;28;20027;-79
2023/03/14 06:10:58;;;;;;;27.25;15.73;;;7.60;96.00;;;;;;4941128;29;20034;-80
2023/03/14 06:13:29;;;;;;;37.65;18.02;;;7.70;95.70;;;;;;4942645;29;20019;-78
2023/03/14 06:15:54;;;;;;;36.22;19.88;;;7.80;95.90;;;;;;4958948;29;20027;-78
2023/03/14 06:18:20;;;;;;;39.63;18.50;;;7.90;96.00;;;;;;4962287;29;20024;-79
2023/03/14 06:20:47;;;;;;;44.53;25.05;;;7.90;95.90;;;;;;4957909;28;20500;-79
2023/03/14 06:23:21;;;;;;;42.90;27.30;;;8.00;95.40;;;;;;4941416;29;20023;-78
2023/03/14 06:25:47;;;;;;;43.90;27.80;;;8.10;96.10;;;;;;4940723;28;20031;-78
2023/03/14 06:28:13;;;;;;;39.08;25.63;;;8.20;95.50;;;;;;4956137;28;20469;-77
2023/03/14 06:30:39;;;;;;;40.30;22.55;;;8.30;95.20;;;;;;4956276;28;20031;-76
2023/03/14 06:33:07;;;;;;;36.58;20.58;;;8.40;94.70;;;;;;4941833;29;20054;-76
2023/03/14 06:35:33;;;;;;;42.25;22.42;;;8.40;94.30;;;;;;4940175;29;20039;-77
2023/03/14 06:37:59;;;;;;;37.92;22.50;;;8.50;94.10;;;;;;4940400;29;20114;-77
2023/03/14 06:40:26;;;;;;;42.47;23.00;;;8.60;94.20;;;;;;4956430;28;20035;-78
2023/03/14 06:43:13;;;;;;;40.80;24.98;;;8.70;94.30;;;;;;4957114;29;20019;-79
2023/03/14 06:45:42;;;;;;;31.00;19.50;;;8.70;94.70;;;;;;4943629;29;20038;-79
2023/03/14 06:48:09;;;;;;;33.70;18.35;;;8.80;94.50;;;;;;4959637;28;20046;-79
2023/03/14 06:50:44;;;;;;;26.83;14.32;;;8.80;93.90;;;;;;4944971;29;20087;-79
2023/03/14 06:53:10;;;;;;;25.95;12.60;;;8.90;94.10;;;;;;4958595;28;20054;-78
2023/03/14 06:55:38;;;;;;;24.05;13.45;;;8.90;93.80;;;;;;4942406;29;20030;-78
2023/03/14 06:58:07;;;;;;;25.38;14.25;;;8.90;94.10;;;;;;4942538;28;20165;-77
2023/03/14 07:00:37;;;;;;;28.63;16.88;;;9.00;94.00;;;;;;4945017;29;20047;-79
2023/03/14 07:03:03;;;;;;;22.27;12.65;;;9.10;93.70;;;;;;4956820;28;20031;-79
2023/03/14 07:05:33;;;;;;;21.98;11.05;;;9.10;93.90;;;;;;4957216;28;20051;-78
2023/03/14 07:07:59;;;;;;;25.27;9.65;;;9.20;93.90;;;;;;4958388;29;20058;-79
2023/03/14 07:10:25;;;;;;;22.65;10.35;;;9.20;93.90;;;;;;4959556;28;20019;-80
2023/03/14 07:12:52;;;;;;;19.48;9.68;;;9.30;93.50;;;;;;4942738;28;20082;-78
2023/03/14 07:15:19;;;;;;;16.17;8.27;;;9.30;93.10;;;;;;4941244;28;20041;-79
2023/03/14 07:17:50;;;;;;;20.23;8.95;;;9.40;93.30;;;;;;4957238;28;20031;-78
2023/03/14 07:20:18;;;;;;;20.23;10.43;;;9.40;93.80;;;;;;4957185;28;20028;-78
2023/03/14 07:22:48;;;;;;;23.95;11.55;;;9.50;93.30;;;;;;4942604;29;20469;-79
2023/03/14 07:25:14;;;;;;;25.02;11.32;;;9.60;93.40;;;;;;4940665;29;20027;-79
2023/03/14 07:27:39;;;;;;;20.60;9.25;;;9.70;93.50;;;;;;4939767;29;20039;-80
2023/03/14 07:30:06;;;;;;;26.52;11.80;;;9.70;92.40;;;;;;4938923;29;20041;-79
2023/03/14 07:32:32;;;;;;;27.45;11.65;;;9.80;93.30;;;;;;4939808;29;20028;-78
2023/03/14 07:34:57;;;;;;;23.00;10.43;;;9.90;92.40;;;;;;4941162;29;20034;-78
2023/03/14 07:37:23;;;;;;;22.52;10.90;;;9.90;92.80;;;;;;4954954;28;20027;-77
2023/03/14 07:39:49;;;;;;;18.58;9.40;;;10.00;92.80;;;;;;4956089;29;20027;-77
2023/03/14 07:42:20;;;;;;;19.77;10.05;;;10.00;92.80;;;;;;4933869;29;20019;-75
2023/03/14 07:45:07;;;;;;;30.65;9.32;;;10.10;92.80;;;;;;4909755;29;20449;-78
2023/03/14 07:47:33;;;;;;;17.75;8.88;;;10.20;92.70;;;;;;4909423;29;20495;-76
2023/03/14 07:49:59;;;;;;;20.45;9.15;;;10.30;93.20;;;;;;4895435;29;20096;-78
2023/03/14 07:52:25;;;;;;;16.10;8.80;;;10.30;92.90;;;;;;4899621;29;20031;-77
2023/03/14 07:54:51;;;;;;;14.88;7.93;;;10.40;93.00;;;;;;4910875;29;20032;-77
2023/03/14 07:57:18;;;;;;;21.17;9.73;;;10.50;92.50;;;;;;4904240;29;20058;-80
2023/03/14 07:59:44;;;;;;;18.55;9.32;;;10.60;92.60;;;;;;4919161;29;20573;-77
2023/03/14 08:02:12;;;;;;;16.13;9.00;;;10.70;92.30;;;;;;4914873;29;20514;-77
2023/03/14 08:04:39;;;;;;;19.85;10.48;;;10.80;92.60;;;;;;4917536;29;20079;-78
2023/03/14 08:07:05;;;;;;;19.48;9.52;;;10.90;93.00;;;;;;4917695;29;20142;-75
2023/03/14 08:09:31;;;;;;;17.85;9.50;;;11.10;93.70;;;;;;4907111;29;20064;-73
2023/03/14 08:11:57;;;;;;;22.10;10.60;;;11.20;93.20;;;;;;4914115;29;20039;-76
2023/03/14 08:14:26;;;;;;;22.20;10.70;;;11.40;93.90;;;;;;4905119;29;20040;-77
2023/03/14 08:16:52;;;;;;;22.45;10.60;;;11.50;92.80;;;;;;4908692;29;20040;-76
2023/03/14 08:19:17;;;;;;;23.02;10.32;;;11.70;93.00;;;;;;4906267;29;20033;-75
2023/03/14 08:21:43;;;;;;;21.52;9.02;;;11.80;93.10;;;;;;4914456;29;20054;-78
2023/03/14 08:24:09;;;;;;;20.15;9.50;;;11.90;92.10;;;;;;4956748;28;20019;-77
2023/03/14 08:26:35;;;;;;;20.40;9.00;;;12.00;92.50;;;;;;4956443;29;20031;-77
2023/03/14 08:29:02;;;;;;;17.58;8.27;;;12.10;92.10;;;;;;4940174;29;20035;-77
2023/03/14 08:31:28;;;;;;;21.90;9.02;;;12.20;91.90;;;;;;4958884;28;20095;-77
2023/03/14 08:33:54;;;;;;;23.92;8.80;;;12.30;91.30;;;;;;4956615;28;20035;-78
2023/03/14 08:36:20;;;;;;;17.83;8.55;;;12.40;91.70;;;;;;4955662;29;20027;-78
2023/03/14 08:38:46;;;;;;;19.45;8.65;;;12.60;92.30;;;;;;4956387;28;20058;-79
2023/03/14 08:41:12;;;;;;;19.15;8.63;;;12.70;91.60;;;;;;4956734;29;20031;-78
2023/03/14 08:43:37;;;;;;;25.67;9.13;;;12.80;91.00;;;;;;4960115;28;20031;-78
2023/03/14 08:46:03;;;;;;;20.67;9.65;;;12.90;91.30;;;;;;4957028;29;20035;-78
2023/03/14 08:48:30;;;;;;;26.17;11.20;;;13.00;90.70;;;;;;4955155;29;20031;-79
2023/03/14 08:51:03;;;;;;;33.92;15.75;;;13.10;90.50;;;;;;4956438;28;20516;-78
2023/03/14 08:53:30;;;;;;;33.33;15.50;;;13.30;90.60;;;;;;4955605;29;20027;-78
2023/03/14 08:55:56;;;;;;;25.67;13.50;;;13.50;89.80;;;;;;4956082;29;20034;-78
2023/03/14 08:58:23;;;;;;;26.88;12.23;;;13.60;89.80;;;;;;4955761;29;20027;-77
2023/03/14 09:00:49;;;;;;;31.45;14.85;;;13.70;89.10;;;;;;4956434;28;20046;-77
2023/03/14 09:03:15;;;;;;;30.13;12.60;;;14.00;90.20;;;;;;4957612;29;20042;-77
2023/03/14 09:05:41;;;;;;;23.05;12.25;;;14.10;90.50;;;;;;4958573;28;20023;-79
2023/03/14 09:08:07;;;;;;;23.17;10.73;;;14.40;90.30;;;;;;4955571;28;20070;-76
2023/03/14 09:10:33;;;;;;;17.85;8.77;;;14.60;90.30;;;;;;4958649;28;20031;-77
2023/03/14 09:13:00;;;;;;;18.00;7.75;;;14.70;89.00;;;;;;4961486;29;20031;-78
2023/03/14 09:15:26;;;;;;;15.73;8.13;;;14.70;86.70;;;;;;4962309;29;20489;-77
2023/03/14 09:17:52;;;;;;;15.98;8.35;;;14.70;87.90;;;;;;4959244;29;20024;-78
2023/03/14 09:20:17;;;;;;;16.58;7.90;;;14.80;87.70;;;;;;4960272;29;20027;-74
2023/03/14 09:22:43;;;;;;;16.63;7.35;;;14.90;85.50;;;;;;4960541;28;20039;-78
2023/03/14 09:25:10;;;;;;;16.42;7.78;;;15.00;86.20;;;;;;4960127;29;20114;-79
2023/03/14 09:27:36;;;;;;;23.30;8.23;;;15.10;86.50;;;;;;4959772;29;20040;-75
2023/03/14 09:30:04;;;;;;;19.98;8.05;;;15.30;86.50;;;;;;4961009;29;20043;-78
2023/03/14 09:32:31;;;;;;;17.02;7.30;;;15.40;85.80;;;;;;4960743;28;20034;-78
2023/03/14 09:34:57;;;;;;;21.50;8.55;;;15.60;85.10;;;;;;4962826;28;20027;-79
2023/03/14 09:37:23;;;;;;;16.60;8.98;;;15.70;84.60;;;;;;4959750;28;20476;-78
2023/03/14 09:39:49;;;;;;;23.65;8.63;;;16.00;85.00;;;;;;4960348;29;20042;-78
2023/03/14 09:42:18;;;;;;;17.85;7.47;;;16.20;86.00;;;;;;4962742;28;20473;-78
2023/03/14 09:45:06;;;;;;;23.25;6.80;;;16.30;85.50;;;;;;4962719;29;20027;-77
2023/03/14 09:47:34;;;;;;;17.40;6.90;;;16.50;84.90;;;;;;4961011;28;20031;-78
2023/03/14 09:50:05;;;;;;;22.38;7.88;;;16.60;85.30;;;;;;4960214;28;20046;-77
2023/03/14 09:52:41;;;;;;;17.13;7.75;;;16.80;82.70;;;;;;4945767;29;20038;-79
2023/03/14 09:55:19;;;;;;;13.98;6.95;;;17.10;83.90;;;;;;4960224;28;20044;-78
2023/03/14 09:57:48;;;;;;;14.25;6.70;;;17.30;85.10;;;;;;4960254;29;20035;-78
2023/03/14 10:00:23;;;;;;;14.15;6.47;;;17.40;82.50;;;;;;4959246;29;20039;-77
2023/03/14 10:03:13;;;;;;;19.75;7.80;;;17.60;84.70;;;;;;4960346;28;20385;-79
2023/03/14 10:05:41;;;;;;;13.05;5.38;;;17.60;82.20;;;;;;4960574;28;20031;-77
2023/03/14 10:08:10;;;;;;;12.68;5.88;;;17.70;80.90;;;;;;4958995;28;20102;-77
2023/03/14 10:10:36;;;;;;;16.02;6.25;;;17.90;80.60;;;;;;4957943;28;20031;-78
2023/03/14 10:13:18;;;;;;;15.30;6.45;;;18.00;81.50;;;;;;4958568;29;20033;-79
2023/03/14 10:15:58;;;;;;;15.27;6.63;;;18.00;79.60;;;;;;4958106;29;20035;-79
2023/03/14 10:18:24;;;;;;;14.15;6.88;;;18.00;81.70;;;;;;4955529;29;20106;-74
2023/03/14 10:21:02;;;;;;;19.52;6.95;;;18.20;82.20;;;;;;4959134;29;20101;-77
2023/03/14 10:23:32;;;;;;;12.43;5.70;;;18.30;81.00;;;;;;4960355;29;20027;-74
2023/03/14 10:26:13;;;;;;;9.27;5.13;;;18.50;81.10;;;;;;4958088;28;20027;-77
2023/03/14 10:28:44;;;;;;;14.15;5.75;;;18.40;79.90;;;;;;4959574;28;20043;-79
2023/03/14 10:31:10;;;;;;;10.20;5.07;;;18.30;80.30;;;;;;4951374;28;20044;-78
2023/03/14 10:33:37;;;;;;;15.05;5.72;;;18.20;81.60;;;;;;4944073;29;20032;-78
2023/03/14 10:36:06;;;;;;;13.95;5.63;;;18.10;81.70;;;;;;4940902;29;20115;-76
2023/03/14 10:38:34;;;;;;;9.57;5.63;;;18.20;81.50;;;;;;4953883;28;20019;-77
2023/03/14 10:41:01;;;;;;;17.83;7.82;;;18.10;81.50;;;;;;4958562;28;20031;-78
2023/03/14 10:43:35;;;;;;;11.13;5.20;;;18.20;80.30;;;;;;4959280;28;20035;-76
2023/03/14 10:46:06;;;;;;;13.23;5.97;;;18.30;81.80;;;;;;4959195;28;20441;-79
2023/03/14 10:48:36;;;;;;;13.27;4.90;;;18.30;79.20;;;;;;4959632;29;20166;-77
2023/03/14 10:51:17;;;;;;;11.75;5.15;;;18.50;80.00;;;;;;4959552;28;20043;-77
2023/03/14 10:54:01;;;;;;;10.95;5.05;;;18.50;79.40;;;;;;4959739;29;20099;-77
2023/03/14 10:56:34;;;;;;;11.93;4.97;;;18.70;79.50;;;;;;4956745;29;20118;-78
2023/03/14 10:59:00;;;;;;;13.68;5.55;;;18.70;79.90;;;;;;4944850;29;20102;-76
2023/03/14 11:01:32;;;;;;;11.65;5.50;;;18.80;79.90;;;;;;4942636;29;20039;-78
2023/03/14 11:04:11;;;;;;;10.82;5.35;;;18.80;80.00;;;;;;4952611;28;20031;-79
2023/03/14 11:07:02;;;;;;;14.77;6.43;;;19.00;79.10;;;;;;4958304;28;20023;-74
2023/03/14 11:09:47;;;;;;;11.88;5.47;;;19.00;78.90;;;;;;4939552;29;20046;-77
2023/03/14 11:12:52;;;;;;;15.10;5.90;;;19.10;80.40;;;;;;4926807;28;20024;-80
2023/03/14 11:15:39;;;;;;;13.63;6.13;;;18.90;77.80;;;;;;4956722;28;20070;-74
2023/03/14 11:18:25;;;;;;;11.68;6.43;;;18.90;80.30;;;;;;4956353;29;20047;-78
2023/03/14 11:21:17;;;;;;;14.93;5.10;;;19.00;78.60;;;;;;4956407;28;20358;-80
2023/03/14 11:24:10;;;;;;;15.70;4.87;;;19.00;76.90;;;;;;4956495;29;20512;-79
2023/03/14 11:26:47;;;;;;;12.48;6.10;;;18.90;78.00;;;;;;4956246;28;20038;-78
2023/03/14 11:29:28;;;;;;;14.27;5.32;;;18.80;79.50;;;;;;4945150;28;20047;-79
2023/03/14 11:31:57;;;;;;;10.27;3.80;;;18.90;80.50;;;;;;4956397;28;20094;-79
2023/03/14 11:34:36;;;;;;;9.35;3.80;;;19.00;78.20;;;;;;4955716;28;20028;-79
2023/03/14 11:37:11;;;;;;;13.25;5.57;;;19.00;80.30;;;;;;4956441;29;20027;-77
2023/03/14 11:39:45;;;;;;;9.40;4.07;;;18.90;79.90;;;;;;4955837;28;20438;-78
2023/03/14 11:42:17;;;;;;;11.57;6.05;;;18.90;79.90;;;;;;4956109;29;20058;-79
2023/03/14 11:44:48;;;;;;;10.77;4.10;;;18.90;80.70;;;;;;4956082;29;20038;-77
2023/03/14 11:47:24;;;;;;;24.30;5.07;;;18.90;79.80;;;;;;4956185;29;20097;-78
2023/03/14 11:50:07;;;;;;;10.20;4.43;;;18.80;78.20;;;;;;4955941;29;20036;-76
2023/03/14 11:52:39;;;;;;;14.00;5.10;;;18.80;79.70;;;;;;4956156;28;20231;-79
2023/03/14 11:55:07;;;;;;;11.45;4.93;;;18.90;78.30;;;;;;4955994;29;20028;-76
2023/03/14 11:57:33;;;;;;;9.68;3.90;;;18.90;78.50;;;;;;4955811;29;20031;-79
2023/03/14 12:00:22;;;;;;;9.77;4.57;;;19.00;77.60;;;;;;4956111;29;20515;-78
2023/03/14 12:03:05;;;;;;;12.13;4.70;;;19.10;80.10;;;;;;4955782;29;20127;-78
2023/03/14 12:06:06;;;;;;;16.55;5.65;;;19.10;78.90;;;;;;5070628;28;20735;-72
2023/03/14 12:08:45;;;;;;;7.15;3.53;;;19.20;82.30;;;;;;5070694;28;20388;-75
2023/03/14 12:11:13;;;;;;;12.30;5.70;;;19.20;77.80;;;;;;5069212;28;20044;-74
2023/03/14 12:13:40;;;;;;;16.63;7.28;;;19.10;80.20;;;;;;5070579;28;20025;-74
2023/03/14 12:16:19;;;;;;;13.80;6.22;;;19.20;80.80;;;;;;5070504;28;20031;-78
2023/03/14 12:18:45;;;;;;;9.20;4.15;;;19.20;81.10;;;;;;5070251;28;20079;-74
2023/03/14 12:21:12;;;;;;;10.85;4.40;;;19.10;77.50;;;;;;5069032;28;20029;-71
2023/03/14 12:23:42;;;;;;;7.25;4.00;;;19.10;78.50;;;;;;5070208;28;20029;-79
2023/03/14 12:26:11;;;;;;;10.68;4.63;;;19.00;77.20;;;;;;5069945;28;20086;-79
2023/03/14 12:28:49;;;;;;;9.52;4.25;;;18.90;77.90;;;;;;5070379;28;20021;-78
2023/03/14 12:31:30;;;;;;;10.15;3.75;;;18.80;78.40;;;;;;5070059;28;20028;-77
2023/03/14 12:34:11;;;;;;;20.55;4.97;;;18.80;77.70;;;;;;5055504;28;20072;-76
2023/03/14 12:36:49;;;;;;;22.08;5.93;;;18.80;78.20;;;;;;5069835;28;20396;-75
2023/03/14 12:39:44;;;;;;;13.98;5.28;;;18.80;81.00;;;;;;5050622;28;20024;-77
2023/03/14 12:42:29;;;;;;;13.73;5.85;;;18.80;79.70;;;;;;5057053;28;20041;-77
2023/03/14 12:45:26;;;;;;;19.60;5.40;;;18.90;80.80;;;;;;5060971;28;20032;-76
2023/03/14 12:48:14;;;;;;;14.88;5.53;;;18.90;78.70;;;;;;5064503;28;20064;-77
2023/03/14 12:50:44;;;;;;;11.48;5.65;;;19.00;79.70;;;;;;5057427;28;20111;-77
2023/03/14 12:53:15;;;;;;;18.55;6.93;;;19.00;80.20;;;;;;5069702;28;20070;-77
2023/03/14 12:55:47;;;;;;;16.17;7.10;;;19.10;79.00;;;;;;5067434;28;20037;-77
2023/03/14 12:58:43;;;;;;;16.25;7.40;;;19.20;79.50;;;;;;5063750;28;20361;-78
2023/03/14 13:01:17;;;;;;;12.20;6.43;;;19.30;80.70;;;;;;5043830;28;20045;-77